Time;durP1;ratioP1;P1;durP2;ratioP2;P2;SDS_P1;SDS_P2;PMS_P1;PMS_P2;Temp;Humidity;BMP_temperature;BMP_pressure;BME280_temperature;BME280_humidity;BME280_pressure;Samples;Min_cycle;Max_cycle;Signal;HPM_P1;HPM_P2
2022/04/23 00:01:50;;;;;;;9.57;7.10;;;;;;;7.83;100.00;94921.19;5072999;28;20058;-78
2022/04/23 00:04:16;;;;;;;10.30;7.90;;;;;;;7.83;100.00;94928.22;5072785;28;20037;-78
2022/04/23 00:06:43;;;;;;;10.10;8.03;;;;;;;7.87;100.00;94924.28;5066193;28;20497;-76
2022/04/23 00:09:09;;;;;;;10.47;8.27;;;;;;;7.84;100.00;94922.81;5061928;28;20032;-77
2022/04/23 00:11:35;;;;;;;9.60;7.93;;;;;;;7.73;100.00;94924.03;5062198;28;20032;-78
2022/04/23 00:14:01;;;;;;;10.67;8.13;;;;;;;7.70;100.00;94920.94;5078266;28;20393;-77
2022/04/23 00:16:27;;;;;;;10.83;8.70;;;;;;;7.69;100.00;94925.38;5063557;28;20028;-77
2022/04/23 00:18:53;;;;;;;9.20;7.27;;;;;;;7.57;100.00;94927.56;5075975;28;20056;-77
2022/04/23 00:21:20;;;;;;;9.97;7.83;;;;;;;7.63;100.00;94925.25;5077281;28;20172;-77
2022/04/23 00:23:47;;;;;;;12.50;8.30;;;;;;;7.55;100.00;94933.97;5066301;28;20118;-78
2022/04/23 00:26:13;;;;;;;10.30;8.43;;;;;;;7.49;100.00;94929.44;5063313;28;20115;-77
2022/04/23 00:28:39;;;;;;;10.70;8.60;;;;;;;7.40;100.00;94931.25;5054553;28;20064;-77
2022/04/23 00:31:05;;;;;;;11.40;9.40;;;;;;;7.40;100.00;94931.25;5065977;28;20052;-78
2022/04/23 00:33:38;;;;;;;10.47;8.40;;;;;;;7.36;100.00;94935.22;5067740;28;20030;-77
2022/04/23 00:36:10;;;;;;;10.77;8.68;;;;;;;7.33;100.00;94927.69;5057721;28;20354;-77
2022/04/23 00:38:38;;;;;;;11.37;9.17;;;;;;;7.35;100.00;94925.75;5062251;28;20047;-77
2022/04/23 00:41:05;;;;;;;12.50;9.30;;;;;;;7.36;100.00;94929.97;5066216;28;20037;-78
2022/04/23 00:43:34;;;;;;;12.10;9.30;;;;;;;7.25;100.00;94932.97;5051066;28;20119;-77
2022/04/23 00:46:00;;;;;;;12.37;9.73;;;;;;;7.21;100.00;94934.28;5049470;28;20033;-77
2022/04/23 00:48:28;;;;;;;11.27;9.40;;;;;;;7.21;100.00;94929.91;5061201;28;20039;-77
2022/04/23 00:50:57;;;;;;;12.40;9.80;;;;;;;7.19;100.00;94924.00;5058725;28;20071;-78
2022/04/23 00:53:24;;;;;;;13.23;10.00;;;;;;;7.10;100.00;94925.03;5062115;28;20119;-77
2022/04/23 00:55:52;;;;;;;14.37;10.77;;;;;;;7.11;100.00;94931.91;5047884;28;20044;-77
2022/04/23 00:58:19;;;;;;;14.07;11.13;;;;;;;7.12;100.00;94930.09;5040201;28;20048;-78
2022/04/23 01:00:45;;;;;;;12.83;10.60;;;;;;;7.11;100.00;94926.66;5049478;28;20036;-77
2022/04/23 01:03:12;;;;;;;12.83;10.63;;;;;;;7.12;100.00;94936.13;5060079;28;20032;-77
2022/04/23 01:05:44;;;;;;;12.17;10.13;;;;;;;7.06;100.00;94939.41;5060912;28;20036;-77
2022/04/23 01:08:14;;;;;;;10.87;7.90;;;;;;;7.06;100.00;94942.03;5062014;28;20045;-77
2022/04/23 01:10:41;;;;;;;12.87;10.20;;;;;;;7.07;100.00;94943.66;5064221;28;20439;-78
2022/04/23 01:13:08;;;;;;;12.97;10.37;;;;;;;7.16;100.00;94944.44;5061310;28;20136;-77
2022/04/23 01:15:34;;;;;;;14.87;11.37;;;;;;;7.05;100.00;94937.81;5063678;28;20028;-77
2022/04/23 01:17:59;;;;;;;14.43;11.53;;;;;;;6.97;100.00;94935.19;5060503;28;20409;-77
2022/04/23 01:20:26;;;;;;;13.77;11.93;;;;;;;7.02;100.00;94940.75;5059858;28;20402;-77
2022/04/23 01:22:51;;;;;;;16.40;12.57;;;;;;;7.01;100.00;94939.94;5046738;28;20448;-77
2022/04/23 01:25:17;;;;;;;16.97;13.47;;;;;;;6.99;100.00;94939.28;5053813;28;20029;-77
2022/04/23 01:27:47;;;;;;;15.30;12.07;;;;;;;6.98;100.00;94935.06;5068348;28;20127;-78
2022/04/23 01:30:13;;;;;;;15.93;12.33;;;;;;;7.01;100.00;94945.16;5058198;28;20052;-77
2022/04/23 01:32:39;;;;;;;15.37;12.33;;;;;;;7.00;100.00;94950.53;5043629;28;20531;-78
2022/04/23 01:35:05;;;;;;;14.43;12.47;;;;;;;6.95;100.00;94945.84;5034370;28;20039;-78
2022/04/23 01:37:31;;;;;;;14.43;12.67;;;;;;;6.94;100.00;94954.66;5062375;28;20129;-77
2022/04/23 01:39:57;;;;;;;15.30;12.60;;;;;;;6.95;100.00;94945.84;5062248;28;20036;-78
2022/04/23 01:42:23;;;;;;;17.23;13.90;;;;;;;6.82;100.00;94959.44;5051803;28;20036;-77
2022/04/23 01:44:51;;;;;;;18.77;14.50;;;;;;;6.88;100.00;94949.28;5060144;28;20032;-78
2022/04/23 01:47:17;;;;;;;15.10;12.57;;;;;;;6.91;100.00;94948.94;5059420;28;20025;-77
2022/04/23 01:49:44;;;;;;;15.93;13.13;;;;;;;6.82;100.00;94943.75;5066976;28;20089;-77
2022/04/23 01:52:11;;;;;;;16.10;13.97;;;;;;;6.79;100.00;94944.06;5049626;28;20040;-78
2022/04/23 01:54:37;;;;;;;16.30;12.97;;;;;;;6.77;100.00;94946.06;5044120;28;20127;-77
2022/04/23 01:57:04;;;;;;;16.47;12.73;;;;;;;6.76;100.00;94939.19;5057096;28;20154;-78
2022/04/23 01:59:30;;;;;;;16.57;12.97;;;;;;;6.76;100.00;94936.56;5047550;28;20032;-78
2022/04/23 02:01:56;;;;;;;20.17;13.60;;;;;;;6.66;100.00;94938.56;5062900;28;20043;-77
2022/04/23 02:04:22;;;;;;;14.77;12.23;;;;;;;6.67;100.00;94939.38;5063288;28;20044;-77
2022/04/23 02:06:47;;;;;;;15.43;12.60;;;;;;;6.57;100.00;94939.56;5066944;28;20025;-77
2022/04/23 02:09:14;;;;;;;16.00;12.27;;;;;;;6.62;100.00;94937.25;5066027;28;20060;-77
2022/04/23 02:11:40;;;;;;;15.13;12.17;;;;;;;6.61;100.00;94940.88;5051402;28;20713;-77
2022/04/23 02:14:06;;;;;;;15.20;12.13;;;;;;;6.60;100.00;94936.59;5063700;28;20029;-77
2022/04/23 02:16:42;;;;;;;15.93;12.33;;;;;;;6.54;100.00;94937.28;5054420;28;20029;-76
2022/04/23 02:19:08;;;;;;;16.10;12.67;;;;;;;6.50;100.00;94938.59;5055291;28;20072;-77
2022/04/23 02:21:33;;;;;;;15.30;11.60;;;;;;;6.51;100.00;94937.63;5063902;28;20477;-77
2022/04/23 02:24:01;;;;;;;14.77;11.43;;;;;;;6.60;100.00;94931.38;5069236;28;20060;-78
2022/04/23 02:26:27;;;;;;;19.50;12.70;;;;;;;6.43;100.00;94937.63;5062401;28;20036;-77
2022/04/23 02:28:53;;;;;;;15.33;12.73;;;;;;;6.41;100.00;94937.00;5061885;28;20025;-78
2022/04/23 02:31:18;;;;;;;17.23;12.60;;;;;;;6.32;100.00;94930.94;5045218;28;20043;-77
2022/04/23 02:33:44;;;;;;;15.50;11.97;;;;;;;6.40;100.00;94930.94;5060352;28;20060;-77
2022/04/23 02:36:15;;;;;;;15.63;12.23;;;;;;;6.38;100.00;94933.72;5065780;28;20036;-77
2022/04/23 02:38:41;;;;;;;15.50;12.70;;;;;;;6.30;100.00;94928.47;5056880;28;20041;-77
2022/04/23 02:41:08;;;;;;;16.73;13.33;;;;;;;6.38;100.00;94922.47;5061545;28;20029;-77
2022/04/23 02:43:35;;;;;;;16.50;12.77;;;;;;;6.41;100.00;94929.16;5048112;28;20028;-77
2022/04/23 02:46:02;;;;;;;17.67;14.63;;;;;;;6.39;100.00;94924.09;5049567;28;20643;-77
2022/04/23 02:48:28;;;;;;;18.70;14.10;;;;;;;6.36;100.00;94925.22;5063680;28;20029;-77
2022/04/23 02:50:54;;;;;;;19.67;14.57;;;;;;;6.31;100.00;94914.47;5057782;28;20040;-77
2022/04/23 02:53:20;;;;;;;19.10;14.33;;;;;;;6.25;100.00;94909.91;5050519;28;20082;-77
2022/04/23 02:55:46;;;;;;;17.13;13.53;;;;;;;6.31;100.00;94913.66;5051786;28;20037;-78
2022/04/23 02:58:12;;;;;;;17.87;14.00;;;;;;;6.25;100.00;94919.53;5051917;28;20101;-77
2022/04/23 03:00:40;;;;;;;18.03;14.83;;;;;;;6.22;100.00;94925.09;5057213;28;20448;-77
2022/04/23 03:03:07;;;;;;;17.77;14.97;;;;;;;6.12;100.00;94914.81;5062110;28;20040;-77
2022/04/23 03:05:33;;;;;;;18.27;15.10;;;;;;;6.07;100.00;94928.38;5062080;28;20358;-77
2022/04/23 03:08:00;;;;;;;17.10;14.50;;;;;;;6.06;100.00;94931.94;5056105;28;20090;-76
2022/04/23 03:10:30;;;;;;;18.30;14.47;;;;;;;6.05;100.00;94935.53;5058454;28;20074;-78
2022/04/23 03:12:57;;;;;;;17.30;14.00;;;;;;;6.06;100.00;94941.56;5058960;28;20082;-77
2022/04/23 03:15:26;;;;;;;17.47;13.80;;;;;;;6.09;100.00;94943.84;5058713;28;20047;-77
2022/04/23 03:18:06;;;;;;;19.13;14.73;;;;;;;6.16;100.00;94944.81;5059753;28;20037;-78
2022/04/23 03:20:32;;;;;;;16.83;13.53;;;;;;;6.17;100.00;94943.88;5051663;28;20525;-77
2022/04/23 03:22:58;;;;;;;16.73;13.43;;;;;;;6.13;100.00;94947.75;5059819;28;20045;-78
2022/04/23 03:25:24;;;;;;;17.07;13.43;;;;;;;6.17;100.00;94962.13;5047290;28;20036;-78
2022/04/23 03:27:50;;;;;;;16.40;13.70;;;;;;;6.28;100.00;94956.56;5033367;28;20453;-78
2022/04/23 03:30:16;;;;;;;15.57;12.47;;;;;;;6.35;100.00;94947.09;5047623;28;20036;-78
2022/04/23 03:32:42;;;;;;;14.23;11.13;;;;;;;6.33;100.00;94953.47;5052708;28;20044;-78
2022/04/23 03:35:08;;;;;;;16.50;11.97;;;;;;;6.33;100.00;94951.66;5049270;28;20037;-77
2022/04/23 03:37:38;;;;;;;16.00;11.57;;;;;;;6.35;100.00;94957.53;5059064;28;20021;-77
2022/04/23 03:40:11;;;;;;;15.63;11.90;;;;;;;6.44;100.00;94965.34;5045149;28;20043;-78
2022/04/23 03:42:37;;;;;;;;;;;;;;;6.48;100.00;94962.28;5055453;28;20033;-78
2022/04/23 03:45:05;;;;;;;14.40;11.47;;;;;;;6.52;100.00;94962.75;5065183;28;19912;-78
2022/04/23 03:47:34;;;;;;;14.57;11.73;;;;;;;6.54;100.00;94964.22;5064261;28;20040;-77
2022/04/23 03:50:04;;;;;;;15.00;11.13;;;;;;;6.63;100.00;94959.78;5056005;28;20040;-78
2022/04/23 03:52:30;;;;;;;16.70;12.37;;;;;;;6.59;100.00;94961.09;5058202;28;20058;-78
2022/04/23 03:54:56;;;;;;;13.93;11.23;;;;;;;6.57;100.00;94953.44;5061692;28;20532;-78
2022/04/23 03:57:21;;;;;;;14.37;11.23;;;;;;;6.59;100.00;94951.47;5045267;28;20553;-77
2022/04/23 03:59:47;;;;;;;17.67;13.43;;;;;;;6.66;100.00;94942.97;5063458;28;20041;-78
2022/04/23 04:02:13;;;;;;;19.27;13.57;;;;;;;6.70;100.00;94946.88;5060974;28;20505;-78
2022/04/23 04:04:38;;;;;;;17.70;13.43;;;;;;;6.74;100.00;94943.78;5067838;28;20040;-78
2022/04/23 04:07:05;;;;;;;18.10;12.80;;;;;;;6.76;100.00;94944.41;5046216;28;20098;-77
2022/04/23 04:09:30;;;;;;;18.23;13.73;;;;;;;6.70;100.00;94949.50;5051840;28;20562;-77
2022/04/23 04:12:02;;;;;;;19.57;14.57;;;;;;;6.78;100.00;94934.63;5061983;28;20068;-77
2022/04/23 04:14:34;;;;;;;19.80;13.50;;;;;;;6.85;100.00;94940.81;5065428;28;20043;-78
2022/04/23 04:17:00;;;;;;;17.77;13.33;;;;;;;6.92;100.00;94940.94;5041282;28;20029;-77
2022/04/23 04:19:27;;;;;;;18.30;13.70;;;;;;;6.89;100.00;94937.84;5043892;28;20137;-78
2022/04/23 04:21:54;;;;;;;16.33;12.57;;;;;;;6.80;100.00;94939.66;5046406;28;20040;-78
2022/04/23 04:24:20;;;;;;;16.63;13.03;;;;;;;6.83;100.00;94940.13;5060925;28;20122;-78
2022/04/23 04:26:47;;;;;;;18.30;13.60;;;;;;;6.91;100.00;94926.25;5065487;28;20055;-78
2022/04/23 04:29:14;;;;;;;16.47;12.67;;;;;;;6.91;100.00;94928.03;5068299;28;21021;-78
2022/04/23 04:31:49;;;;;;;16.17;12.93;;;;;;;6.97;100.00;94930.78;5048411;28;20062;-78
2022/04/23 04:34:17;;;;;;;15.23;12.20;;;;;;;6.80;100.00;94911.72;5065627;28;20024;-77
2022/04/23 04:36:47;;;;;;;13.67;10.60;;;;;;;6.80;100.00;94913.53;5049040;28;20505;-78
2022/04/23 04:39:14;;;;;;;13.07;9.50;;;;;;;6.79;100.00;94902.28;5042504;28;20071;-77
2022/04/23 04:41:40;;;;;;;12.20;9.93;;;;;;;6.83;100.00;94906.16;5051939;28;20089;-78
2022/04/23 04:44:06;;;;;;;13.93;10.47;;;;;;;6.83;100.00;94910.59;5043284;28;20167;-77
2022/04/23 04:46:33;;;;;;;12.30;9.50;;;;;;;6.76;100.00;94907.03;5065387;28;20056;-78
2022/04/23 04:48:59;;;;;;;12.70;9.37;;;;;;;6.78;100.00;94905.06;5065110;28;20031;-80
2022/04/23 04:51:25;;;;;;;13.60;10.53;;;;;;;6.79;100.00;94893.63;5067577;28;20059;-80
2022/04/23 04:53:53;;;;;;;13.23;9.83;;;;;;;6.85;100.00;94893.75;5064052;28;20481;-78
2022/04/23 04:56:20;;;;;;;13.93;10.30;;;;;;;6.83;100.00;94893.09;5060163;28;20098;-78
2022/04/23 04:58:46;;;;;;;12.77;10.03;;;;;;;6.78;100.00;94900.66;5039108;28;20505;-78
2022/04/23 05:01:12;;;;;;;12.30;9.90;;;;;;;6.79;100.00;94899.66;5043420;28;20481;-77
2022/04/23 05:03:40;;;;;;;11.23;8.90;;;;;;;6.79;100.00;94901.47;5038233;28;20029;-78
2022/04/23 05:06:12;;;;;;;13.30;8.70;;;;;;;6.81;100.00;94912.56;5051997;28;20032;-79
2022/04/23 05:08:38;;;;;;;9.90;7.53;;;;;;;6.78;100.00;94911.09;5050337;28;20040;-80
2022/04/23 05:11:04;;;;;;;10.53;7.87;;;;;;;6.78;100.00;94910.28;5057385;28;20044;-78
2022/04/23 05:13:30;;;;;;;9.23;7.03;;;;;;;6.94;100.00;94917.25;5062939;28;20043;-76
2022/04/23 05:15:56;;;;;;;10.63;7.57;;;;;;;6.92;100.00;94896.50;5044492;28;20028;-78
2022/04/23 05:18:22;;;;;;;10.17;7.20;;;;;;;6.91;100.00;94901.91;5062579;28;20041;-81
2022/04/23 05:20:48;;;;;;;10.87;8.03;;;;;;;6.95;100.00;94911.06;5052041;28;20032;-79
2022/04/23 05:23:14;;;;;;;9.53;7.30;;;;;;;7.01;100.00;94905.97;5063937;28;20035;-79
2022/04/23 05:25:40;;;;;;;10.00;7.10;;;;;;;7.07;100.00;94914.91;5055962;28;20609;-80
2022/04/23 05:28:06;;;;;;;10.60;7.60;;;;;;;7.13;100.00;94914.22;5058878;28;20033;-79
2022/04/23 05:30:31;;;;;;;11.50;7.97;;;;;;;7.24;100.00;94931.34;5062115;28;20036;-77
2022/04/23 05:32:57;;;;;;;9.90;7.53;;;;;;;7.11;100.00;94924.06;5064924;28;20049;-78
2022/04/23 05:35:23;;;;;;;10.97;7.50;;;;;;;7.23;100.00;94921.88;5070864;28;20040;-79
2022/04/23 05:37:49;;;;;;;9.00;7.10;;;;;;;7.16;100.00;94923.53;5046853;28;20033;-78
2022/04/23 05:40:14;;;;;;;10.07;6.80;;;;;;;7.26;100.00;94924.94;5060310;28;20099;-78
2022/04/23 05:42:40;;;;;;;9.70;7.10;;;;;;;7.30;100.00;94926.22;5050306;28;20115;-78
2022/04/23 05:45:06;;;;;;;10.40;7.50;;;;;;;7.16;100.00;94934.81;5049846;28;20039;-81
2022/04/23 05:47:32;;;;;;;9.87;7.73;;;;;;;7.32;100.00;94931.31;5048013;28;20029;-79
2022/04/23 05:49:58;;;;;;;8.33;6.57;;;;;;;7.39;100.00;94934.06;5064695;28;20036;-78
2022/04/23 05:52:23;;;;;;;8.90;6.50;;;;;;;7.39;100.00;94936.66;5047123;28;20123;-78
2022/04/23 05:54:49;;;;;;;10.03;7.50;;;;;;;7.45;100.00;94943.84;5066860;28;20028;-80
2022/04/23 05:57:15;;;;;;;9.80;7.03;;;;;;;7.44;100.00;94947.41;5059956;28;20040;-80
2022/04/23 05:59:41;;;;;;;9.40;7.20;;;;;;;7.47;100.00;94934.81;5057066;28;20220;-78
2022/04/23 06:02:08;;;;;;;9.47;7.00;;;;;;;7.52;100.00;94944.78;5048992;28;20123;-78
2022/04/23 06:04:33;;;;;;;9.67;7.30;;;;;;;7.44;100.00;94943.00;5048999;28;20569;-78
2022/04/23 06:06:59;;;;;;;9.70;7.23;;;;;;;7.47;100.00;94949.69;5061993;28;20119;-78
2022/04/23 06:09:25;;;;;;;9.67;7.60;;;;;;;7.43;100.00;94951.03;5062572;28;20032;-78
2022/04/23 06:11:51;;;;;;;9.93;7.43;;;;;;;7.49;100.00;94951.16;5043759;28;20028;-78
2022/04/23 06:14:16;;;;;;;9.03;6.13;;;;;;;7.55;100.00;94954.91;5049171;28;20025;-79
2022/04/23 06:16:42;;;;;;;10.30;7.07;;;;;;;7.57;100.00;94952.91;5036690;28;20040;-79
2022/04/23 06:19:08;;;;;;;8.60;6.20;;;;;;;7.53;100.00;94956.88;5065389;28;20040;-79
2022/04/23 06:21:33;;;;;;;10.43;6.50;;;;;;;7.66;100.00;94954.50;5049793;28;20032;-78
2022/04/23 06:23:59;;;;;;;12.07;6.90;;;;;;;7.77;100.00;94963.75;5065032;28;20029;-78
2022/04/23 06:26:25;;;;;;;9.03;6.60;;;;;;;7.62;100.00;94968.91;5065808;28;20496;-78
2022/04/23 06:28:51;;;;;;;8.80;6.67;;;;;;;7.80;100.00;94966.84;5049543;28;20055;-80
2022/04/23 06:31:17;;;;;;;9.53;7.20;;;;;;;7.69;100.00;94967.25;5049550;28;20474;-78
2022/04/23 06:33:43;;;;;;;7.80;6.03;;;;;;;7.67;100.00;94961.34;5063303;28;20055;-79
2022/04/23 06:36:10;;;;;;;9.60;6.53;;;;;;;7.59;100.00;94964.03;5056624;28;20037;-78
2022/04/23 06:38:36;;;;;;;9.07;6.70;;;;;;;7.61;100.00;94972.50;5051218;28;20041;-78
2022/04/23 06:41:02;;;;;;;10.00;7.20;;;;;;;7.50;100.00;94972.91;5049781;28;20025;-80
2022/04/23 06:43:28;;;;;;;10.20;6.90;;;;;;;7.55;100.00;94976.63;5057618;28;20864;-78
2022/04/23 06:46:00;;;;;;;10.17;7.23;;;;;;;7.66;100.00;94970.19;5046524;28;20054;-78
2022/04/23 06:48:26;;;;;;;8.97;6.70;;;;;;;7.61;100.00;94974.31;5066808;28;20502;-79
2022/04/23 06:50:51;;;;;;;9.53;6.63;;;;;;;7.55;100.00;94975.84;5059876;28;20059;-78
2022/04/23 06:53:17;;;;;;;8.67;5.93;;;;;;;7.67;100.00;94965.78;5046173;28;20596;-79
2022/04/23 06:55:43;;;;;;;9.97;7.23;;;;;;;7.69;100.00;94971.66;5042812;28;20083;-78
2022/04/23 06:58:08;;;;;;;8.83;7.03;;;;;;;7.79;100.00;94967.84;5060198;28;20037;-78
2022/04/23 07:00:35;;;;;;;9.33;6.83;;;;;;;7.70;100.00;94961.00;5065221;28;20031;-78
2022/04/23 07:03:01;;;;;;;9.80;7.27;;;;;;;7.75;100.00;94960.50;5044280;28;20508;-80
2022/04/23 07:05:27;;;;;;;9.93;6.77;;;;;;;7.78;100.00;94963.59;5063638;28;20032;-78
2022/04/23 07:08:01;;;;;;;8.73;6.70;;;;;;;7.87;100.00;94969.56;5047584;28;20033;-78
2022/04/23 07:10:29;;;;;;;9.57;6.77;;;;;;;7.98;100.00;94966.56;5052066;28;20033;-78
2022/04/23 07:12:55;;;;;;;8.80;6.47;;;;;;;8.02;100.00;94962.63;5033709;28;20732;-78
2022/04/23 07:15:27;;;;;;;9.63;6.67;;;;;;;7.68;100.00;94975.25;5059993;28;20033;-78
2022/04/23 07:17:53;;;;;;;9.30;6.93;;;;;;;7.80;100.00;94971.25;5060078;28;20032;-78
2022/04/23 07:20:19;;;;;;;10.17;7.70;;;;;;;7.83;100.00;94965.69;5049383;28;20031;-78
2022/04/23 07:25:32;;;;;;;9.67;6.73;;;;;;;8.14;100.00;94960.38;5057622;28;20039;-78
2022/04/23 07:27:58;;;;;;;8.13;5.87;;;;;;;8.00;100.00;94969.00;5044141;28;20090;-78
2022/04/23 07:30:25;;;;;;;12.30;5.83;;;;;;;8.07;100.00;94967.31;5045784;28;20104;-78
2022/04/23 07:32:57;;;;;;;8.57;5.77;;;;;;;8.10;100.00;94964.34;5061493;28;20032;-78
2022/04/23 07:38:12;;;;;;;8.63;6.00;;;;;;;8.10;100.00;94966.97;5061221;28;20103;-78
2022/04/23 07:40:40;;;;;;;7.97;5.70;;;;;;;8.11;100.00;94960.72;5061370;28;20078;-79
2022/04/23 07:43:12;;;;;;;9.50;5.90;;;;;;;8.25;100.00;94962.63;5052752;28;20056;-78
2022/04/23 07:45:43;;;;;;;7.80;5.77;;;;;;;8.37;100.00;94959.56;5062446;28;20036;-78
2022/04/23 07:48:10;;;;;;;8.83;5.43;;;;;;;8.35;100.00;94956.28;5051725;28;20173;-78
2022/04/23 07:50:37;;;;;;;8.33;5.77;;;;;;;8.39;100.00;94955.00;5064211;28;20118;-78
2022/04/23 07:53:04;;;;;;;9.90;7.03;;;;;;;8.64;100.00;94959.00;5058088;28;20509;-78
2022/04/23 07:55:37;;;;;;;7.70;5.33;;;;;;;8.53;100.00;94953.41;5063065;28;20143;-78
2022/04/23 07:58:06;;;;;;;6.60;4.15;;;;;;;8.58;100.00;94961.53;5049906;28;20029;-79
2022/04/23 08:00:35;;;;;;;8.47;5.33;;;;;;;8.78;100.00;94961.84;5050169;28;20036;-78
2022/04/23 08:03:06;;;;;;;7.90;5.20;;;;;;;8.60;100.00;94959.56;5062265;28;20045;-78
2022/04/23 08:05:34;;;;;;;9.90;6.10;;;;;;;8.69;100.00;94955.88;5062482;28;20454;-78
2022/04/23 08:08:01;;;;;;;8.47;5.80;;;;;;;8.80;100.00;94949.38;5049728;28;20045;-77
2022/04/23 08:10:27;;;;;;;8.73;5.70;;;;;;;8.62;100.00;94953.16;5055449;28;21353;-78
2022/04/23 08:12:54;;;;;;;8.60;5.80;;;;;;;8.73;100.00;94950.09;5060587;28;20119;-79
2022/04/23 08:15:20;;;;;;;10.17;6.43;;;;;;;8.52;100.00;94952.59;5043194;28;20366;-77
2022/04/23 08:17:47;;;;;;;11.30;6.47;;;;;;;8.69;100.00;94950.63;5041712;28;20056;-78
2022/04/23 08:20:13;;;;;;;9.50;6.03;;;;;;;8.60;100.00;94942.03;5060277;28;20028;-78
2022/04/23 08:22:39;;;;;;;9.47;6.23;;;;;;;8.68;100.00;94941.13;5038966;28;20048;-78
2022/04/23 08:25:05;;;;;;;9.10;6.43;;;;;;;8.81;100.00;94946.56;5055299;28;20425;-78
2022/04/23 08:27:45;;;;;;;8.87;6.57;;;;;;;8.68;100.00;94955.03;5061871;28;20037;-79
2022/04/23 08:32:55;;;;;;;8.53;5.53;;;;;;;8.75;100.00;94952.50;5062727;28;20063;-78
2022/04/23 08:35:21;;;;;;;9.07;5.90;;;;;;;8.90;100.00;94949.91;5068699;28;20509;-78
2022/04/23 08:37:46;;;;;;;9.13;5.73;;;;;;;8.68;100.00;94952.41;5051883;28;20095;-78
2022/04/23 08:40:12;;;;;;;10.47;5.87;;;;;;;8.85;100.00;94962.75;5065260;28;20477;-78
2022/04/23 08:42:39;;;;;;;9.00;6.33;;;;;;;8.76;100.00;94972.50;5048212;28;20538;-78
2022/04/23 08:45:07;;;;;;;9.70;6.37;;;;;;;8.68;100.00;94962.91;5059089;28;20081;-78
2022/04/23 08:47:36;;;;;;;9.40;6.60;;;;;;;8.65;100.00;94965.91;5067613;28;20021;-78
2022/04/23 08:50:04;;;;;;;9.73;7.37;;;;;;;8.63;100.00;94965.25;5062174;28;20039;-81
2022/04/23 08:52:33;;;;;;;10.13;7.03;;;;;;;8.59;100.00;94964.00;5061113;28;20036;-78
2022/04/23 08:55:01;;;;;;;9.30;6.27;;;;;;;8.61;100.00;94967.22;5063836;28;20035;-77
2022/04/23 08:57:28;;;;;;;9.67;6.90;;;;;;;8.64;100.00;94966.06;5040694;28;20021;-79
2022/04/23 08:59:56;;;;;;;9.77;6.83;;;;;;;8.78;100.00;94964.47;5046945;28;20032;-79
2022/04/23 09:02:26;;;;;;;12.37;7.63;;;;;;;8.93;100.00;94962.69;5067610;28;20075;-78
2022/04/23 09:04:54;;;;;;;13.60;6.57;;;;;;;8.88;100.00;94962.38;5057389;28;20020;-77
2022/04/23 09:07:24;;;;;;;11.57;6.80;;;;;;;8.91;100.00;94954.16;5058409;28;20909;-78
2022/04/23 09:09:52;;;;;;;11.33;8.33;;;;;;;9.06;100.00;94956.81;5063970;28;20042;-79
2022/04/23 09:12:19;;;;;;;11.80;7.70;;;;;;;9.13;100.00;94957.69;5046555;28;20028;-78
2022/04/23 09:14:45;;;;;;;10.50;7.20;;;;;;;9.35;100.00;94948.09;5061935;28;20480;-79
2022/04/23 09:25:37;;;;;;;15.43;7.10;;;;;;;9.37;100.00;94953.97;5054738;28;20032;-78
2022/04/23 09:28:23;;;;;;;13.97;7.50;;;;;;;9.62;100.00;94950.03;5063916;28;20033;-79
2022/04/23 09:30:51;;;;;;;12.43;8.83;;;;;;;9.47;100.00;94948.44;5061263;28;20032;-78
2022/04/23 09:33:17;;;;;;;10.73;7.23;;;;;;;9.38;100.00;94945.91;5061793;28;20034;-79
2022/04/23 09:36:04;;;;;;;12.13;8.10;;;;;;;9.74;100.00;94949.56;5052964;28;20040;-78
2022/04/23 09:38:31;;;;;;;11.00;6.87;;;;;;;9.90;100.00;94951.94;5068276;28;20037;-78
2022/04/23 09:41:17;;;;;;;11.07;7.40;;;;;;;9.78;100.00;94949.00;5054184;28;20091;-79
2022/04/23 09:43:45;;;;;;;10.43;7.23;;;;;;;9.67;100.00;94942.41;5052181;28;20041;-78
2022/04/23 09:46:11;;;;;;;11.70;7.63;;;;;;;9.67;100.00;94942.41;5063155;28;20041;-78
2022/04/23 09:48:43;;;;;;;10.10;7.03;;;;;;;9.64;100.00;94948.03;5048450;28;20039;-78
2022/04/23 09:51:24;;;;;;;10.47;7.47;;;;;;;9.60;100.00;94951.22;5054526;28;20037;-79
2022/04/23 09:53:53;;;;;;;10.27;7.53;;;;;;;9.72;100.00;94946.28;5063758;28;20047;-77
2022/04/23 09:56:28;;;;;;;10.40;7.27;;;;;;;9.81;100.00;94939.94;5041950;28;20402;-79
2022/04/23 09:58:55;;;;;;;11.27;7.33;;;;;;;10.04;100.00;94945.81;5051697;28;20041;-78
2022/04/23 10:01:23;;;;;;;9.33;7.10;;;;;;;9.74;100.00;94941.69;5044845;28;20037;-79
2022/04/23 10:03:50;;;;;;;10.83;7.43;;;;;;;9.86;100.00;94945.47;5048262;28;20040;-79
2022/04/23 10:06:19;;;;;;;11.93;7.73;;;;;;;9.90;100.00;94941.44;5056915;28;20520;-79
2022/04/23 10:08:49;;;;;;;10.77;7.10;;;;;;;9.91;100.00;94945.69;5052572;28;20519;-78
2022/04/23 10:11:23;;;;;;;11.43;7.73;;;;;;;10.02;100.00;94945.19;5048600;28;20523;-79
2022/04/23 10:13:54;;;;;;;13.63;7.67;;;;;;;10.29;100.00;94948.91;5055631;28;20036;-79
2022/04/23 10:16:20;;;;;;;10.60;7.40;;;;;;;10.37;100.00;94938.28;5056495;28;20032;-79
2022/04/23 10:18:47;;;;;;;11.30;7.47;;;;;;;10.46;100.00;94946.84;5063214;28;20124;-78
2022/04/23 10:21:30;;;;;;;10.93;8.67;;;;;;;10.27;100.00;94952.75;5066276;28;20025;-79
2022/04/23 10:24:18;;;;;;;11.73;9.00;;;;;;;10.36;100.00;94947.16;5048978;28;20036;-79
2022/04/23 10:26:46;;;;;;;11.43;8.97;;;;;;;10.23;100.00;94954.06;5055416;28;20079;-78
2022/04/23 10:29:14;;;;;;;11.00;8.80;;;;;;;10.16;100.00;94943.53;5058030;28;20524;-79
2022/04/23 10:31:43;;;;;;;14.80;9.63;;;;;;;10.14;100.00;94937.63;5063897;28;20032;-78
2022/04/23 10:34:32;;;;;;;11.67;8.90;;;;;;;10.01;100.00;94943.56;5050129;28;20063;-79
2022/04/23 10:37:19;;;;;;;11.97;9.07;;;;;;;10.17;100.00;94941.72;5057051;28;20068;-78
2022/04/23 10:39:51;;;;;;;12.67;9.60;;;;;;;10.24;100.00;94948.63;5059476;28;20048;-78
2022/04/23 10:42:24;;;;;;;11.77;9.30;;;;;;;10.34;100.00;94943.09;5058923;28;20048;-79
2022/04/23 10:44:51;;;;;;;12.85;10.05;;;;;;;10.57;100.00;94938.44;5040640;28;20506;-79
2022/04/23 10:47:34;;;;;;;12.47;9.27;;;;;;;10.43;100.00;94941.97;5068348;28;20037;-79
2022/04/23 10:50:17;;;;;;;13.25;10.73;;;;;;;10.46;100.00;94936.34;5054857;28;20191;-79
2022/04/23 10:52:44;;;;;;;11.97;9.47;;;;;;;10.54;100.00;94933.56;5051936;28;20044;-78
2022/04/23 10:55:12;;;;;;;12.13;9.60;;;;;;;10.44;100.00;94927.00;5041575;28;20551;-79
2022/04/23 10:57:41;;;;;;;12.73;9.37;;;;;;;10.56;100.00;94931.56;5047749;28;20049;-79
2022/04/23 11:00:17;;;;;;;14.03;10.27;;;;;;;10.67;100.00;94922.34;5044195;28;20521;-78
2022/04/23 11:03:07;;;;;;;16.37;9.80;;;;;;;10.73;100.00;94926.81;5059970;28;20032;-79
2022/04/23 11:14:37;;;;;;;13.47;10.07;;;;;;;10.93;99.30;94900.66;5057574;28;20068;-78
2022/04/23 11:17:03;;;;;;;11.80;9.57;;;;;;;11.11;97.62;94909.84;5043895;28;20057;-79
2022/04/23 11:19:30;;;;;;;11.07;9.27;;;;;;;10.97;96.68;94917.66;5044743;28;20068;-78
2022/04/23 11:21:56;;;;;;;13.47;9.70;;;;;;;10.97;97.47;94908.97;5057004;28;20064;-79
2022/04/23 11:24:24;;;;;;;14.00;9.27;;;;;;;11.04;98.08;94920.34;5053077;28;20064;-79
2022/04/23 11:26:51;;;;;;;12.60;10.37;;;;;;;10.84;98.10;94922.84;5058479;28;20096;-79
2022/04/23 11:29:17;;;;;;;12.27;10.03;;;;;;;10.95;98.73;94909.16;5048506;28;20462;-79
2022/04/23 11:31:58;;;;;;;14.67;10.13;;;;;;;10.77;98.27;94917.53;5070841;28;20048;-80
2022/04/23 11:34:25;;;;;;;12.97;9.73;;;;;;;10.55;100.00;94918.59;5054505;28;20029;-79
2022/04/23 11:36:51;;;;;;;12.37;10.27;;;;;;;10.53;99.40;94910.06;5047358;28;20572;-78
2022/04/23 11:39:17;;;;;;;12.10;9.27;;;;;;;10.59;99.81;94912.75;5048411;28;20095;-79
2022/04/23 11:41:48;;;;;;;13.40;10.50;;;;;;;10.76;99.17;94915.91;5050205;28;20037;-79
2022/04/23 11:44:45;;;;;;;13.30;10.37;;;;;;;10.82;98.87;94916.97;5043758;28;20029;-78
2022/04/23 11:47:15;;;;;;;15.87;11.10;;;;;;;10.67;100.00;94924.16;5062504;28;20037;-78
2022/04/23 11:49:40;;;;;;;14.60;11.23;;;;;;;10.73;99.50;94905.78;5058649;28;20036;-79
2022/04/23 11:52:08;;;;;;;17.60;11.10;;;;;;;10.84;99.33;94920.22;5060014;28;20443;-79
2022/04/23 11:54:38;;;;;;;13.97;11.43;;;;;;;10.76;99.86;94909.84;5064117;28;20043;-80